Archival Weather

Rochelle Muni/Koritz Fld

Rochelle, Illinois (KRPJ)

Report from: Sunday, February 5, 2023 1:35 PM CST
Current time: Tuesday, February 27, 2024 5:05 AM CST

Current weather – Weather history – Daily summaries
Weather forecast

Temperature2.1°C (35.8°F)
Wind chill-2.1°C (28.2°F)
Dew point-0.6°C (30.9°F)
Winds 9 kts (4.6 m/s, 10.4 mph) West (270°)
Visibility10 mi. (16.1 km)
Clouds Sky clear
Altimeter29.93 in.Hg (1014 mB)
Relative humidity82 %
Density altitude-1,490 ft. (-454 m)
Remarks Fully automated report
Automated weather observing station with precipitation discriminator
Lightning detection system not operating
Flight conditions Visual Meteorological Conditions
Raw dataKRPJ 051935Z AUTO 27009KT 10SM CLR 02/M01 A2993 RMK AO2 T00211006 TSNO
An error has occurred. This application may no longer respond until reloaded. Reload 🗙